Detall de PIREP

Printer-friendly versionPDF version

[2016/09/09 10:37:00]
Flight IATA:CT0003
Pilot Number:012
Company ICAO:CAT
Aircraft Type:B738/F
PAX:160
Departing Airport: LICJ
Destination Airport: LIEA
Alternate Airport:LIEO
Online: VATSIM
Route:GIANO UQ152 CAR UM732 SODIO
Flight Level:F280
No Slew and time accel
No pause
Crash detect
Detect pilot in Cockpit between each 30 and 45 minutes
10:37 Zero fuel Weight: 123756 Lbs, Fuel Weight: 14100 Lbs
10:37 VATSIM:LICJ 091020Z 30010KT 8000 VCSH SCT018CB BKN022 25/20 Q1013
10:37 VATSIM:LIEA 091020Z 24005KT 180V280 9999 FEW025 27/19 Q1014
10:37 PROVA CATPLANES NOU
10:38 Parking Brakes off
10:42 Take-off
10:42 Take off Weight: 137333 Lbs
10:42 Wind: 297º @ 010 Knots Heading: 246º
10:42 POS N38º 10´ 44´´ E013º 06´ 01´´
10:42 Gear Up: 157 Knots
10:42 Flaps:3 at 157 Knots
10:43 Flaps:2 at 173 Knots
10:43 Flaps:1 at 193 Knots
10:43 Flaps:0 at 200 Knots
10:56 TOC
10:56 Fuel Weight: 10538 Lb
10:57 Wind:321º@027 Knots Heading: 278º Ground Speed: 454 Knots Altitude 27969 ft
11:12 Wind:327º@036 Knots Heading: 314º Ground Speed: 439 Knots Altitude 27975 ft
11:16 TOD
11:16 Fuel Weight: 8384 Lb
11:27 Wind:003º@009 Knots Heading: 333º Ground Speed: 257 Knots Altitude 8264 ft
11:28 Flaps:1 at 241 Knots
11:32 Flaps:3 at 187 Knots
11:32 Flaps:4 at 179 Knots
11:32 Flaps:5 at 178 Knots
11:33 Gear Down: 180 Knots
11:33 Flaps:6 at 177 Knots
11:34 Flaps:7 at 151 Knots
11:34 Flaps:8 at 151 Knots
11:38 TouchDown:Rate -117 ft/min Speed: 126 Knots
11:38 VATSIM:LIEA 091120Z 28007KT 230V330 9999 FEW030 29/19 Q1014
11:38 Land
11:38 Wind:270º@006 Knots
11:38 Heading: 202º
11:38 Flight Duration: 00:56
11:38 Landing Weight: 130877 Lbs
11:38 POS N40º 37´ 45´´ E008º 17´ 21´´
11:40 Parking brakes on
11:40 Block to Block Duration: 01:02
11:40Final Fuel: 6953 Lbls
11:40 Spent Fuel: 7147 Lbls
11:40 Flight Length: 321 NM
11:40 TOD Land Length: 98 NM

Exportar CSV

Powered by Drupal - Modified by Danger4k